Date,TemperatureHighF,TemperatureAvgF,TemperatureLowF,DewpointHighF,DewpointAvgF,DewpointLowF,HumidityHigh,HumidityAvg,HumidityLow,PressureMaxIn,PressureMinIn,WindSpeedMaxMPH,WindSpeedAvgMPH,GustSpeedMaxMPH,PrecipitationSumIn
2013-3-1,60,46,32,20,13,4,37,27,18,30.47,30.27,12,4,18,0.00
2013-3-2,68,50,31,23,19,15,58,32,15,30.45,30.17,9,1,16,0.00
2013-3-3,69,51,32,22,14,-6,50,27,5,30.17,29.83,20,3,20,0.00
2013-3-4,63,54,43,22,19,14,38,26,15,30.05,29.70,16,4,26,0.00
2013-3-5,63,47,31,21,16,5,63,33,10,30.31,30.06,11,2,15,0.00
2013-3-6,68,53,42,25,19,11,38,28,17,30.18,29.87,10,2,15,0.00
2013-3-7,72,54,33,19,15,11,44,24,11,30.04,29.81,8,1,13,0.00
2013-3-8,62,48,38,42,25,11,82,46,18,29.90,29.66,10,3,20,0.08
2013-3-9,46,39,32,34,24,15,81,57,30,30.05,29.77,13,3,20,0.00
2013-3-10,53,40,28,28,22,13,85,55,24,30.25,30.05,10,2,18,0.00
2013-3-11,64,46,25,20,16,7,69,35,11,30.28,30.03,12,3,18,0.00
2013-3-12,71,54,36,23,20,18,51,29,14,30.21,30.05,10,2,20,0.00
2013-3-13,72,52,33,25,21,14,61,33,13,30.33,30.13,7,2,16,0.00
2013-3-14,78,58,41,24,17,9,43,23,8,30.29,30.07,7,1,11,0.00
2013-3-15,81,62,42,19,12,6,33,16,6,30.12,29.80,6,2,9,0.00
2013-3-16,73,59,42,34,20,12,48,23,11,29.82,29.60,21,3,26,0.00
2013-3-17,70,54,39,35,18,-17,70,34,3,29.77,29.59,14,3,26,0.00
2013-3-18,67,54,35,9,5,0,32,15,7,29.95,29.78,18,2,24,0.00
2013-3-19,64,51,39,16,8,1,32,19,11,30.17,29.94,11,2,22,0.00
2013-3-20,65,50,31,26,17,12,47,29,16,30.26,29.84,9,2,14,0.00
2013-3-21,72,59,48,31,17,-8,44,24,4,29.84,29.51,18,6,27,0.00
2013-3-22,68,52,36,27,10,3,37,20,8,29.75,29.53,12,3,23,0.00
2013-3-23,51,40,28,26,0,-19,48,21,7,30.16,29.64,19,6,33,0.00
2013-3-24,54,39,20,-1,-7,-14,28,15,9,30.27,30.00,16,3,25,0.00
2013-3-25,57,40,24,10,6,-2,48,26,13,30.31,30.12,16,3,21,0.00
2013-3-26,67,48,30,13,8,5,36,21,10,30.27,29.94,11,3,18,0.00
2013-3-27,73,58,41,14,10,3,32,17,7,30.05,29.84,13,2,18,0.00
2013-3-28,74,60,45,22,13,5,26,16,8,30.02,29.86,16,2,25,0.00
2013-3-29,75,61,43,21,17,13,34,20,10,30.07,29.89,11,2,15,0.00
2013-3-30,75,60,38,25,19,14,42,22,10,30.07,29.85,8,2,25,0.00
2013-3-31,75,62,48,31,26,23,43,27,15,29.98,29.78,7,1,13,0.00